Time;durP1;ratioP1;P1;durP2;ratioP2;P2;SDS_P1;SDS_P2;PMS_P1;PMS_P2;Temp;Humidity;BMP_temperature;BMP_pressure;BME280_temperature;BME280_humidity;BME280_pressure;Samples;Min_cycle;Max_cycle;Signal;HPM_P1;HPM_P2
2023/06/05 00:02:22;;;;;;;;;5.00;5.00;;;;;;;;5047084;28;8808;-79
2023/06/05 00:04:49;;;;;;;;;5.75;5.75;;;;;;;;5050792;28;8875;-82
2023/06/05 00:07:16;;;;;;;;;5.25;5.25;;;;;;;;5043240;28;8861;-78
2023/06/05 00:09:43;;;;;;;;;4.50;4.50;;;;;;;;5048145;28;8885;-83
2023/06/05 00:12:11;;;;;;;;;5.00;5.00;;;;;;;;5048080;28;8895;-83
2023/06/05 00:14:38;;;;;;;;;5.25;5.25;;;;;;;;5042345;28;8900;-79
2023/06/05 00:17:06;;;;;;;;;3.00;3.00;;;;;;;;5043832;28;8885;-81
2023/06/05 00:19:35;;;;;;;;;5.50;5.50;;;;;;;;5050985;28;8866;-79
2023/06/05 00:22:02;;;;;;;;;4.75;4.75;;;;;;;;5046592;28;8889;-81
2023/06/05 00:24:30;;;;;;;;;6.25;5.00;;;;;;;;5043960;28;8869;-82
2023/06/05 00:26:57;;;;;;;;;4.25;4.25;;;;;;;;5043353;28;8854;-80
2023/06/05 00:29:24;;;;;;;;;4.75;4.75;;;;;;;;5043045;28;8864;-81
2023/06/05 00:31:53;;;;;;;;;4.50;4.50;;;;;;;;5035628;28;8837;-82
2023/06/05 00:34:20;;;;;;;;;5.00;5.00;;;;;;;;5040015;28;8863;-79
2023/06/05 00:36:50;;;;;;;;;6.75;5.75;;;;;;;;5040933;28;8850;-86
2023/06/05 00:39:18;;;;;;;;;4.75;4.75;;;;;;;;5045313;28;8843;-86
2023/06/05 00:41:46;;;;;;;;;3.50;3.50;;;;;;;;5049713;28;8849;-84
2023/06/05 00:44:13;;;;;;;;;4.25;4.25;;;;;;;;5049848;28;8847;-85
2023/06/05 00:46:40;;;;;;;;;5.50;5.50;;;;;;;;5046624;28;8866;-80
2023/06/05 00:49:08;;;;;;;;;7.00;5.50;;;;;;;;5045525;28;8882;-86
2023/06/05 00:51:35;;;;;;;;;6.00;5.00;;;;;;;;5042782;28;8988;-83
2023/06/05 00:54:05;;;;;;;;;5.25;4.50;;;;;;;;5048207;28;8962;-84
2023/06/05 00:56:35;;;;;;;;;5.00;5.00;;;;;;;;5042363;28;8867;-84
2023/06/05 00:59:03;;;;;;;;;6.00;4.75;;;;;;;;5042880;28;9197;-83
2023/06/05 01:01:30;;;;;;;;;6.00;6.00;;;;;;;;5047863;28;8808;-84
2023/06/05 01:03:58;;;;;;;;;6.00;6.00;;;;;;;;5051151;28;8839;-83
2023/06/05 01:06:26;;;;;;;;;4.25;3.25;;;;;;;;5042431;28;8867;-82
2023/06/05 01:08:56;;;;;;;;;6.00;6.00;;;;;;;;5043976;28;8855;-82
2023/06/05 01:11:33;;;;;;;;;8.50;6.50;;;;;;;;5046157;28;8849;-80
2023/06/05 01:14:06;;;;;;;;;6.00;6.00;;;;;;;;5045660;28;8850;-82
2023/06/05 01:16:34;;;;;;;;;4.75;4.75;;;;;;;;5048090;28;8867;-80
2023/06/05 01:19:03;;;;;;;;;6.00;5.00;;;;;;;;5051697;28;8859;-81
2023/06/05 01:21:31;;;;;;;;;6.00;5.50;;;;;;;;5049232;28;8871;-84
2023/06/05 01:24:01;;;;;;;;;9.00;7.75;;;;;;;;5041374;28;8870;-82
2023/06/05 01:26:37;;;;;;;;;11.25;6.25;;;;;;;;5047458;28;8982;-81
2023/06/05 01:29:08;;;;;;;;;7.50;6.00;;;;;;;;5049120;28;8981;-84
2023/06/05 01:31:36;;;;;;;;;6.00;6.00;;;;;;;;5047330;28;9931;-82
2023/06/05 01:34:07;;;;;;;;;6.25;6.25;;;;;;;;5045052;28;8851;-83
2023/06/05 01:36:36;;;;;;;;;6.00;6.00;;;;;;;;5044519;28;8838;-81
2023/06/05 01:39:06;;;;;;;;;6.00;6.00;;;;;;;;5034839;28;8859;-81
2023/06/05 01:41:34;;;;;;;;;7.00;7.00;;;;;;;;5033571;28;8998;-84
2023/06/05 01:44:02;;;;;;;;;5.25;5.25;;;;;;;;5043742;28;8970;-81
2023/06/05 01:46:30;;;;;;;;;7.00;6.50;;;;;;;;5042624;28;8887;-82
2023/06/05 01:49:01;;;;;;;;;7.00;7.00;;;;;;;;5043523;28;8883;-82
2023/06/05 01:51:28;;;;;;;;;7.75;7.75;;;;;;;;5048444;28;9002;-83
2023/06/05 01:53:55;;;;;;;;;6.00;6.00;;;;;;;;5044747;28;8928;-82
2023/06/05 01:56:24;;;;;;;;;6.67;6.67;;;;;;;;5038173;28;8854;-84
2023/06/05 01:58:53;;;;;;;;;8.33;8.33;;;;;;;;5043340;28;9014;-79
2023/06/05 02:01:22;;;;;;;;;6.00;6.00;;;;;;;;5047226;28;8906;-82
2023/06/05 02:03:50;;;;;;;;;10.00;7.00;;;;;;;;5038950;28;8893;-83
2023/06/05 02:06:17;;;;;;;;;8.67;7.00;;;;;;;;5045549;28;9138;-82
2023/06/05 02:08:45;;;;;;;;;7.00;7.00;;;;;;;;5035277;28;8940;-81
2023/06/05 02:11:12;;;;;;;;;10.67;8.67;;;;;;;;5045475;28;9125;-83
2023/06/05 02:13:41;;;;;;;;;6.67;6.00;;;;;;;;5038240;28;9072;-81
2023/06/05 02:16:11;;;;;;;;;9.00;7.67;;;;;;;;5048469;28;9004;-80
2023/06/05 02:18:39;;;;;;;;;8.67;8.67;;;;;;;;5047003;28;9185;-84
2023/06/05 02:21:06;;;;;;;;;10.67;8.67;;;;;;;;5034317;28;9087;-85
2023/06/05 02:23:34;;;;;;;;;8.00;8.00;;;;;;;;5037615;28;9100;-85
2023/06/05 02:26:01;;;;;;;;;9.00;9.00;;;;;;;;5049130;28;9095;-87
2023/06/05 02:28:28;;;;;;;;;6.33;6.33;;;;;;;;5033024;28;9199;-87
2023/06/05 02:30:57;;;;;;;;;9.00;9.00;;;;;;;;5047725;28;9219;-85
2023/06/05 02:33:24;;;;;;;;;11.00;10.00;;;;;;;;5067633;28;9430;-87
2023/06/05 02:35:51;;;;;;;;;8.33;8.33;;;;;;;;5065770;28;9280;-85
2023/06/05 02:38:19;;;;;;;;;11.67;11.67;;;;;;;;5063441;28;9269;-87
2023/06/05 02:40:46;;;;;;;;;8.33;8.33;;;;;;;;5065689;28;9426;-87
2023/06/05 02:43:14;;;;;;;;;8.33;8.00;;;;;;;;5065238;28;9550;-86
2023/06/05 02:45:41;;;;;;;;;10.33;10.33;;;;;;;;5070843;28;9337;-85
2023/06/05 02:48:10;;;;;;;;;10.33;7.00;;;;;;;;5068247;28;9355;-85
2023/06/05 02:50:37;;;;;;;;;8.00;8.00;;;;;;;;5063484;28;9427;-83
2023/06/05 02:53:04;;;;;;;;;15.00;11.00;;;;;;;;5070864;28;9263;-83
2023/06/05 02:55:32;;;;;;;;;10.67;9.00;;;;;;;;5070145;28;9462;-82
2023/06/05 02:57:59;;;;;;;;;11.33;11.33;;;;;;;;5072808;28;9197;-84
2023/06/05 03:00:27;;;;;;;;;9.33;9.33;;;;;;;;5071813;28;9239;-86
2023/06/05 03:02:55;;;;;;;;;13.67;12.33;;;;;;;;5072208;28;9116;-83
2023/06/05 03:05:25;;;;;;;;;11.00;9.00;;;;;;;;5057560;28;9490;-84
2023/06/05 03:07:55;;;;;;;;;12.67;9.00;;;;;;;;5067148;28;9391;-82
2023/06/05 03:10:23;;;;;;;;;9.67;9.67;;;;;;;;5065074;28;9334;-84
2023/06/05 03:12:50;;;;;;;;;8.33;5.00;;;;;;;;5060289;28;9335;-82
2023/06/05 03:15:18;;;;;;;;;10.67;9.67;;;;;;;;5063129;28;9386;-85
2023/06/05 03:17:45;;;;;;;;;15.33;13.67;;;;;;;;5066683;28;9343;-84
2023/06/05 03:20:13;;;;;;;;;9.50;9.50;;;;;;;;5067398;28;9404;-82
2023/06/05 03:22:41;;;;;;;;;12.67;12.67;;;;;;;;5068479;28;9717;-81
2023/06/05 03:25:09;;;;;;;;;11.33;10.33;;;;;;;;5072993;28;9404;-82
2023/06/05 03:27:37;;;;;;;;;14.67;12.33;;;;;;;;5060248;28;9458;-85
2023/06/05 03:30:05;;;;;;;;;12.33;11.33;;;;;;;;5056687;28;9403;-82
2023/06/05 03:32:34;;;;;;;;;12.00;12.00;;;;;;;;5077563;28;9422;-81
2023/06/05 03:35:01;;;;;;;;;12.50;9.25;;;;;;;;5068054;28;9517;-84
2023/06/05 03:37:28;;;;;;;;;14.00;10.33;;;;;;;;5066961;28;9515;-82
2023/06/05 03:39:57;;;;;;;;;11.50;11.50;;;;;;;;5072085;28;9405;-81
2023/06/05 03:42:24;;;;;;;;;15.50;13.00;;;;;;;;5065441;28;9488;-82
2023/06/05 03:44:52;;;;;;;;;12.50;11.50;;;;;;;;5055421;28;9554;-82
2023/06/05 03:47:20;;;;;;;;;12.75;12.75;;;;;;;;5055813;28;9554;-84
2023/06/05 03:49:48;;;;;;;;;14.00;10.75;;;;;;;;5056598;28;9568;-85
2023/06/05 03:52:15;;;;;;;;;11.00;10.75;;;;;;;;5065088;28;9649;-81
2023/06/05 03:54:44;;;;;;;;;12.50;12.50;;;;;;;;5069819;28;9570;-83
2023/06/05 03:57:15;;;;;;;;;12.75;11.25;;;;;;;;5063188;28;9850;-81
2023/06/05 03:59:42;;;;;;;;;16.75;12.25;;;;;;;;5065667;28;9493;-82
2023/06/05 04:02:09;;;;;;;;;12.25;11.75;;;;;;;;5065502;28;9622;-83
2023/06/05 04:04:37;;;;;;;;;13.00;13.00;;;;;;;;5070024;28;9550;-84
2023/06/05 04:07:05;;;;;;;;;16.50;14.75;;;;;;;;5073837;28;9812;-82
2023/06/05 04:09:32;;;;;;;;;16.00;14.50;;;;;;;;5069560;28;9839;-85
2023/06/05 04:11:59;;;;;;;;;14.50;14.50;;;;;;;;5066743;28;9684;-83
2023/06/05 04:14:28;;;;;;;;;16.75;15.00;;;;;;;;5063140;28;9768;-85
2023/06/05 04:16:56;;;;;;;;;15.00;14.50;;;;;;;;5070329;28;9769;-85
2023/06/05 04:19:23;;;;;;;;;14.00;11.00;;;;;;;;5059290;28;9807;-86
2023/06/05 04:21:51;;;;;;;;;12.50;12.50;;;;;;;;5069287;28;9702;-85
2023/06/05 04:24:18;;;;;;;;;15.00;15.00;;;;;;;;5070055;28;9726;-84
2023/06/05 04:26:45;;;;;;;;;13.50;12.00;;;;;;;;5071655;28;9871;-83
2023/06/05 04:29:15;;;;;;;;;13.75;12.25;;;;;;;;5069641;28;9538;-84
2023/06/05 04:31:48;;;;;;;;;15.75;15.75;;;;;;;;5063004;28;9835;-86
2023/06/05 04:34:18;;;;;;;;;13.00;13.00;;;;;;;;5068310;28;9820;-83
2023/06/05 04:36:46;;;;;;;;;12.00;12.00;;;;;;;;5065303;28;9896;-84
2023/06/05 04:39:15;;;;;;;;;16.25;13.00;;;;;;;;5058024;28;9624;-84
2023/06/05 04:41:44;;;;;;;;;17.00;15.00;;;;;;;;5057024;28;9822;-85
2023/06/05 04:44:13;;;;;;;;;14.75;12.75;;;;;;;;5065593;28;9765;-85
2023/06/05 04:46:42;;;;;;;;;12.75;12.25;;;;;;;;5059482;28;9623;-83
2023/06/05 04:49:12;;;;;;;;;12.50;12.50;;;;;;;;5066654;28;9620;-84
2023/06/05 04:51:43;;;;;;;;;15.25;13.75;;;;;;;;5072428;28;9546;-85
2023/06/05 04:54:11;;;;;;;;;13.00;12.00;;;;;;;;5066723;28;9610;-84
2023/06/05 04:56:44;;;;;;;;;14.50;12.25;;;;;;;;5070572;28;10563;-84
2023/06/05 04:59:12;;;;;;;;;16.25;16.25;;;;;;;;5056713;28;9601;-85
2023/06/05 05:01:40;;;;;;;;;12.25;12.25;;;;;;;;5069698;28;9571;-86
2023/06/05 05:04:08;;;;;;;;;17.00;15.00;;;;;;;;5067849;28;9612;-86
2023/06/05 05:06:36;;;;;;;;;13.00;11.25;;;;;;;;5069727;28;9545;-86
2023/06/05 05:09:06;;;;;;;;;17.50;14.75;;;;;;;;5070264;28;9613;-84
2023/06/05 05:11:33;;;;;;;;;13.00;13.00;;;;;;;;5074568;28;9672;-87
2023/06/05 05:14:01;;;;;;;;;13.75;13.75;;;;;;;;5064906;28;9535;-82
2023/06/05 05:16:31;;;;;;;;;14.75;13.00;;;;;;;;5063723;28;9670;-81
2023/06/05 05:18:58;;;;;;;;;13.25;11.75;;;;;;;;5069055;28;9660;-83
2023/06/05 05:21:25;;;;;;;;;12.00;12.00;;;;;;;;5060043;28;10384;-84
2023/06/05 05:23:54;;;;;;;;;15.00;14.00;;;;;;;;5068019;28;9442;-86
2023/06/05 05:26:26;;;;;;;;;11.67;11.33;;;;;;;;5064289;28;9412;-88
2023/06/05 05:28:53;;;;;;;;;15.00;14.00;;;;;;;;5066376;28;9396;-87
2023/06/05 05:31:21;;;;;;;;;17.33;15.00;;;;;;;;5062437;28;9290;-86
2023/06/05 05:33:48;;;;;;;;;15.33;14.33;;;;;;;;5065421;28;9401;-85
2023/06/05 05:36:21;;;;;;;;;13.67;13.67;;;;;;;;5064785;28;9300;-80
2023/06/05 05:38:56;;;;;;;;;9.00;9.00;;;;;;;;5065509;28;9259;-84
2023/06/05 05:41:28;;;;;;;;;14.00;12.33;;;;;;;;5069399;28;9870;-83
2023/06/05 05:43:56;;;;;;;;;16.33;14.33;;;;;;;;5074163;28;9048;-83
2023/06/05 05:46:26;;;;;;;;;12.33;11.00;;;;;;;;5068540;28;9223;-84
2023/06/05 05:48:54;;;;;;;;;11.00;9.00;;;;;;;;5070273;28;9016;-85
2023/06/05 05:51:27;;;;;;;;;11.00;11.00;;;;;;;;5069819;28;9203;-85
2023/06/05 05:53:56;;;;;;;;;10.67;9.00;;;;;;;;5066349;28;9008;-86
2023/06/05 05:56:24;;;;;;;;;9.67;9.67;;;;;;;;5069831;28;9091;-86
2023/06/05 05:58:56;;;;;;;;;11.00;11.00;;;;;;;;5069370;28;9193;-86
2023/06/05 06:01:24;;;;;;;;;10.25;10.25;;;;;;;;5068600;28;9024;-85
2023/06/05 06:03:56;;;;;;;;;10.33;10.33;;;;;;;;5070415;28;8955;-86
2023/06/05 06:06:26;;;;;;;;;14.67;14.00;;;;;;;;5066189;28;9036;-85
2023/06/05 06:09:04;;;;;;;;;14.50;11.50;;;;;;;;5057762;28;9081;-85
2023/06/05 06:11:31;;;;;;;;;13.50;12.00;;;;;;;;5068491;28;8855;-86
2023/06/05 06:14:03;;;;;;;;;11.75;11.25;;;;;;;;5068903;28;8855;-85
2023/06/05 06:16:32;;;;;;;;;10.00;10.00;;;;;;;;5069017;28;8867;-81
2023/06/05 06:18:59;;;;;;;;;12.00;12.00;;;;;;;;5063321;28;8957;-82
2023/06/05 06:21:30;;;;;;;;;11.25;9.50;;;;;;;;5067721;28;8851;-80
2023/06/05 06:23:57;;;;;;;;;13.75;11.00;;;;;;;;5067822;28;8873;-81
2023/06/05 06:26:27;;;;;;;;;11.75;11.75;;;;;;;;5062750;28;8874;-87
2023/06/05 06:28:57;;;;;;;;;11.25;11.25;;;;;;;;5068317;28;8866;-81
2023/06/05 06:31:24;;;;;;;;;10.25;10.25;;;;;;;;5057815;28;8918;-85
2023/06/05 06:33:52;;;;;;;;;13.00;11.25;;;;;;;;5063432;28;8835;-83
2023/06/05 06:36:19;;;;;;;;;14.25;12.25;;;;;;;;5066869;28;8881;-82
2023/06/05 06:38:47;;;;;;;;;11.00;11.00;;;;;;;;5067196;28;8851;-82
2023/06/05 06:41:14;;;;;;;;;13.75;13.75;;;;;;;;5067779;28;8882;-81
2023/06/05 06:43:47;;;;;;;;;14.50;12.50;;;;;;;;5067319;28;8835;-82
2023/06/05 06:46:15;;;;;;;;;13.00;11.50;;;;;;;;5066727;28;8871;-82
2023/06/05 06:48:42;;;;;;;;;10.25;10.25;;;;;;;;5066462;28;8854;-83
2023/06/05 06:51:09;;;;;;;;;14.00;14.00;;;;;;;;5065739;28;8859;-82
2023/06/05 06:53:36;;;;;;;;;11.00;11.00;;;;;;;;5067262;28;8889;-82
2023/06/05 06:56:04;;;;;;;;;9.25;9.25;;;;;;;;5067885;28;8843;-82
2023/06/05 06:58:32;;;;;;;;;14.25;10.25;;;;;;;;5067420;28;8940;-81
2023/06/05 07:01:01;;;;;;;;;10.00;10.00;;;;;;;;5067243;28;8868;-82
2023/06/05 07:03:28;;;;;;;;;9.00;9.00;;;;;;;;5068288;28;8923;-82
2023/06/05 07:05:55;;;;;;;;;10.00;10.00;;;;;;;;5070169;28;8877;-82
2023/06/05 07:08:25;;;;;;;;;10.50;10.50;;;;;;;;5067183;28;8823;-81
2023/06/05 07:10:55;;;;;;;;;9.25;9.25;;;;;;;;5068107;28;9001;-81
2023/06/05 07:13:25;;;;;;;;;12.75;11.50;;;;;;;;5054857;28;8905;-84
2023/06/05 07:15:56;;;;;;;;;8.75;8.75;;;;;;;;5066973;28;8985;-85
2023/06/05 07:18:27;;;;;;;;;10.00;10.00;;;;;;;;5067879;28;8874;-80
2023/06/05 07:20:57;;;;;;;;;7.75;7.75;;;;;;;;5067333;28;8873;-89
2023/06/05 07:23:28;;;;;;;;;13.00;13.00;;;;;;;;5069377;28;8850;-86
2023/06/05 07:25:56;;;;;;;;;13.00;11.25;;;;;;;;5068310;28;8859;-84
2023/06/05 07:28:25;;;;;;;;;8.50;8.50;;;;;;;;5068583;28;8855;-87
2023/06/05 07:30:52;;;;;;;;;10.00;10.00;;;;;;;;5065612;28;8858;-86
2023/06/05 07:33:20;;;;;;;;;9.00;9.00;;;;;;;;5063701;28;8877;-87
2023/06/05 07:35:49;;;;;;;;;8.00;8.00;;;;;;;;5072348;28;8843;-94
2023/06/05 07:38:16;;;;;;;;;9.00;9.00;;;;;;;;5071768;28;8897;-90
2023/06/05 07:40:43;;;;;;;;;8.25;8.00;;;;;;;;5072811;28;8871;-88
2023/06/05 07:43:14;;;;;;;;;11.75;8.75;;;;;;;;5073173;28;8885;-88
2023/06/05 07:45:41;;;;;;;;;9.75;9.75;;;;;;;;5072263;28;8885;-86
2023/06/05 07:48:09;;;;;;;;;13.25;10.50;;;;;;;;5072033;28;8850;-86
2023/06/05 07:50:36;;;;;;;;;10.25;10.25;;;;;;;;5061248;28;8965;-81
2023/06/05 07:53:05;;;;;;;;;11.00;11.00;;;;;;;;5056062;28;9099;-83
2023/06/05 07:55:32;;;;;;;;;10.75;10.75;;;;;;;;5057323;28;8859;-85
2023/06/05 07:58:00;;;;;;;;;13.75;11.75;;;;;;;;5070987;28;8970;-81
2023/06/05 08:00:28;;;;;;;;;15.25;15.25;;;;;;;;5074502;28;8828;-83
2023/06/05 08:02:57;;;;;;;;;12.00;12.00;;;;;;;;5074301;28;8846;-80
2023/06/05 08:05:24;;;;;;;;;11.50;11.50;;;;;;;;5059195;28;8923;-82
2023/06/05 08:07:51;;;;;;;;;9.00;9.00;;;;;;;;5057356;28;8869;-85
2023/06/05 08:10:20;;;;;;;;;9.75;9.75;;;;;;;;5058951;28;8873;-84
2023/06/05 08:12:47;;;;;;;;;8.50;8.50;;;;;;;;5070411;28;8870;-82
2023/06/05 08:15:15;;;;;;;;;9.25;7.75;;;;;;;;5070599;28;8847;-88
2023/06/05 08:17:42;;;;;;;;;10.00;10.00;;;;;;;;5070427;28;8874;-87
2023/06/05 08:20:10;;;;;;;;;8.25;8.00;;;;;;;;5070463;28;8913;-81
2023/06/05 08:22:40;;;;;;;;;10.00;10.00;;;;;;;;5070549;28;8889;-88
2023/06/05 08:25:08;;;;;;;;;10.00;10.00;;;;;;;;5071014;28;8831;-81
2023/06/05 08:27:36;;;;;;;;;7.25;7.25;;;;;;;;5069740;28;8863;-80
2023/06/05 08:30:04;;;;;;;;;8.00;8.00;;;;;;;;5070423;28;8855;-85
2023/06/05 08:32:32;;;;;;;;;10.75;9.50;;;;;;;;5067877;28;8905;-84
2023/06/05 08:34:59;;;;;;;;;7.80;7.20;;;;;;;;5072490;28;8965;-83
2023/06/05 08:37:28;;;;;;;;;8.00;7.60;;;;;;;;5071813;28;8966;-86
2023/06/05 08:39:58;;;;;;;;;8.80;8.80;;;;;;;;5071520;28;8843;-76
2023/06/05 08:42:28;;;;;;;;;8.40;8.40;;;;;;;;5070831;28;8835;-78
2023/06/05 08:44:57;;;;;;;;;8.60;8.60;;;;;;;;5068946;28;8893;-78
2023/06/05 08:47:25;;;;;;;;;8.20;8.20;;;;;;;;5068817;28;8921;-82
2023/06/05 08:49:54;;;;;;;;;9.20;8.00;;;;;;;;5070736;28;8842;-82
2023/06/05 08:52:24;;;;;;;;;12.20;10.20;;;;;;;;5059017;28;8871;-83
2023/06/05 08:54:51;;;;;;;;;8.00;8.00;;;;;;;;5069556;28;8870;-87
2023/06/05 08:57:19;;;;;;;;;7.60;7.00;;;;;;;;5069811;28;8899;-82
2023/06/05 08:59:46;;;;;;;;;5.80;5.80;;;;;;;;5069046;28;8850;-84
2023/06/05 09:02:14;;;;;;;;;8.80;7.00;;;;;;;;5069462;28;8817;-79
2023/06/05 09:04:41;;;;;;;;;9.40;8.40;;;;;;;;5066229;28;8849;-84
2023/06/05 09:07:10;;;;;;;;;6.20;6.20;;;;;;;;5068896;28;8851;-85
2023/06/05 09:09:37;;;;;;;;;7.40;7.00;;;;;;;;5070651;28;9606;-82
2023/06/05 09:12:06;;;;;;;;;9.80;8.40;;;;;;;;5071055;28;8974;-84
2023/06/05 09:14:34;;;;;;;;;7.00;7.00;;;;;;;;5074501;28;9056;-83
2023/06/05 09:17:02;;;;;;;;;5.40;5.40;;;;;;;;5072258;28;8854;-84
2023/06/05 09:19:39;;;;;;;;;8.60;7.00;;;;;;;;5071062;28;8853;-85
2023/06/05 09:22:08;;;;;;;;;9.00;9.00;;;;;;;;5071414;28;8973;-81
2023/06/05 09:24:35;;;;;;;;;7.00;7.00;;;;;;;;5069874;28;8842;-82
2023/06/05 09:27:05;;;;;;;;;6.00;6.00;;;;;;;;5059437;28;8883;-79
2023/06/05 09:29:34;;;;;;;;;3.00;3.00;;;;;;;;5069099;28;9046;-76
2023/06/05 09:32:03;;;;;;;;;9.20;6.80;;;;;;;;5065359;28;8825;-83
2023/06/05 09:34:31;;;;;;;;;5.00;5.00;;;;;;;;5064899;28;8858;-80
2023/06/05 09:37:01;;;;;;;;;8.40;8.40;;;;;;;;5062236;28;8874;-76
2023/06/05 09:39:29;;;;;;;;;6.20;6.20;;;;;;;;5060093;28;8880;-79
2023/06/05 09:41:58;;;;;;;;;6.60;4.60;;;;;;;;5068362;28;8839;-77
2023/06/05 09:44:27;;;;;;;;;9.60;8.40;;;;;;;;5068252;28;8851;-77
2023/06/05 09:46:56;;;;;;;;;6.80;6.80;;;;;;;;5069705;28;8851;-83
2023/06/05 09:49:26;;;;;;;;;6.20;6.20;;;;;;;;5069280;28;8846;-77
2023/06/05 09:51:53;;;;;;;;;5.60;5.60;;;;;;;;5069288;28;8854;-79
2023/06/05 09:54:23;;;;;;;;;4.00;4.00;;;;;;;;5069760;28;9645;-77
2023/06/05 09:56:51;;;;;;;;;7.20;7.20;;;;;;;;5070961;28;8874;-83
2023/06/05 09:59:22;;;;;;;;;9.00;7.80;;;;;;;;5071031;28;8862;-83
2023/06/05 10:01:51;;;;;;;;;6.00;5.60;;;;;;;;5069113;28;8819;-81
2023/06/05 10:04:21;;;;;;;;;7.20;7.20;;;;;;;;5069827;28;8952;-82
2023/06/05 10:06:49;;;;;;;;;4.40;4.40;;;;;;;;5067440;28;8974;-82
2023/06/05 10:09:16;;;;;;;;;8.00;8.00;;;;;;;;5060855;28;8875;-82
2023/06/05 10:11:49;;;;;;;;;6.40;6.40;;;;;;;;5068916;28;8863;-86
2023/06/05 10:14:18;;;;;;;;;6.80;6.80;;;;;;;;5068825;28;8847;-82
2023/06/05 10:16:48;;;;;;;;;8.40;5.60;;;;;;;;5068332;28;9061;-83
2023/06/05 10:19:15;;;;;;;;;7.80;7.80;;;;;;;;5065807;28;9726;-84
2023/06/05 10:21:43;;;;;;;;;8.00;7.00;;;;;;;;5058906;28;8962;-82
2023/06/05 10:24:14;;;;;;;;;6.20;6.20;;;;;;;;5071121;28;8858;-88
2023/06/05 10:27:25;;;;;;;;;4.00;4.00;;;;;;;;5058608;28;8867;-77
2023/06/05 10:30:26;;;;;;;;;5.80;5.80;;;;;;;;5049211;28;8959;-83
2023/06/05 10:33:09;;;;;;;;;5.60;5.60;;;;;;;;4990374;28;8845;-80
2023/06/05 10:35:47;;;;;;;;;8.00;8.00;;;;;;;;5057970;28;8897;-80
2023/06/05 10:38:20;;;;;;;;;8.40;7.20;;;;;;;;5049022;28;8848;-83
2023/06/05 10:40:48;;;;;;;;;5.00;5.00;;;;;;;;5067841;28;8831;-85
2023/06/05 10:43:27;;;;;;;;;7.00;7.00;;;;;;;;5058715;28;8873;-80
2023/06/05 10:45:55;;;;;;;;;5.00;5.00;;;;;;;;5059818;28;8855;-89
2023/06/05 10:48:22;;;;;;;;;7.80;6.00;;;;;;;;5067648;28;8879;-82
2023/06/05 10:50:49;;;;;;;;;8.40;5.00;;;;;;;;5059728;28;9008;-83
2023/06/05 10:53:42;;;;;;;;;8.00;8.00;;;;;;;;5069669;28;8862;-88
2023/06/05 10:56:09;;;;;;;;;5.00;5.00;;;;;;;;5068547;28;8911;-90
2023/06/05 10:59:13;;;;;;;;;6.00;5.60;;;;;;;;5070316;28;8961;-83
2023/06/05 11:01:41;;;;;;;;;5.60;5.60;;;;;;;;5064936;28;8865;-81
2023/06/05 11:04:08;;;;;;;;;6.40;6.00;;;;;;;;5060637;28;8943;-82
2023/06/05 11:06:37;;;;;;;;;6.60;5.80;;;;;;;;5067923;28;8860;-82
2023/06/05 11:09:09;;;;;;;;;4.60;4.60;;;;;;;;5065024;28;8855;-80
2023/06/05 11:11:56;;;;;;;;;5.20;5.20;;;;;;;;5051361;28;8856;-78
2023/06/05 11:14:25;;;;;;;;;5.00;5.00;;;;;;;;5070526;28;8871;-77
2023/06/05 11:16:52;;;;;;;;;6.20;5.80;;;;;;;;5061606;28;8857;-80
2023/06/05 11:19:38;;;;;;;;;7.40;7.00;;;;;;;;5070133;28;8908;-78
2023/06/05 11:22:08;;;;;;;;;5.20;5.20;;;;;;;;5067390;28;8871;-83
2023/06/05 11:24:36;;;;;;;;;4.00;4.00;;;;;;;;5063384;28;8849;-78
2023/06/05 11:27:05;;;;;;;;;4.00;4.00;;;;;;;;5061536;28;9685;-81
2023/06/05 11:29:34;;;;;;;;;3.60;3.60;;;;;;;;5071092;28;8873;-81
2023/06/05 11:32:02;;;;;;;;;6.00;6.00;;;;;;;;5058698;28;8819;-82
2023/06/05 11:34:29;;;;;;;;;5.00;5.00;;;;;;;;5055268;28;9823;-79
2023/06/05 11:36:57;;;;;;;;;3.00;3.00;;;;;;;;5068553;28;8877;-81
2023/06/05 11:39:29;;;;;;;;;4.00;4.00;;;;;;;;5064774;28;8879;-83
2023/06/05 11:41:57;;;;;;;;;5.20;5.20;;;;;;;;5055678;28;8923;-81
2023/06/05 11:44:35;;;;;;;;;7.00;5.80;;;;;;;;5061574;28;8871;-81
2023/06/05 11:47:03;;;;;;;;;5.20;5.20;;;;;;;;5064444;28;8985;-80
2023/06/05 11:49:31;;;;;;;;;4.40;3.00;;;;;;;;5059352;28;8993;-80
2023/06/05 11:51:58;;;;;;;;;4.60;4.60;;;;;;;;5067788;28;8865;-84
2023/06/05 11:54:31;;;;;;;;;3.20;3.20;;;;;;;;5059871;28;8970;-76
2023/06/05 11:57:01;;;;;;;;;5.00;5.00;;;;;;;;5057453;28;8943;-82
2023/06/05 11:59:29;;;;;;;;;5.00;5.00;;;;;;;;5069988;28;8847;-85
2023/06/05 12:01:57;;;;;;;;;6.00;6.00;;;;;;;;5064655;28;8935;-80
2023/06/05 12:04:26;;;;;;;;;5.60;5.60;;;;;;;;5059807;28;8900;-86
2023/06/05 12:06:53;;;;;;;;;5.80;5.80;;;;;;;;5062237;28;9019;-83
2023/06/05 12:09:21;;;;;;;;;7.20;4.00;;;;;;;;5063628;28;9657;-83
2023/06/05 12:11:48;;;;;;;;;5.40;5.40;;;;;;;;5071087;28;8888;-78
2023/06/05 12:14:32;;;;;;;;;5.00;5.00;;;;;;;;5072287;28;8850;-82
2023/06/05 12:17:02;;;;;;;;;5.40;5.40;;;;;;;;5065955;28;8838;-85
2023/06/05 12:19:30;;;;;;;;;6.00;6.00;;;;;;;;5059848;28;8985;-82
2023/06/05 12:22:04;;;;;;;;;6.00;6.00;;;;;;;;5068246;28;8990;-86
2023/06/05 12:24:32;;;;;;;;;4.20;4.20;;;;;;;;5067812;28;8835;-85
2023/06/05 12:27:01;;;;;;;;;6.20;5.40;;;;;;;;5071361;28;9735;-79
2023/06/05 12:29:32;;;;;;;;;5.00;5.00;;;;;;;;5073110;28;8867;-85
2023/06/05 12:32:03;;;;;;;;;6.00;5.40;;;;;;;;5072338;28;8815;-86
2023/06/05 12:34:50;;;;;;;;;5.40;5.40;;;;;;;;5061625;28;8843;-84
2023/06/05 12:37:25;;;;;;;;;4.40;4.40;;;;;;;;5072977;28;8843;-80
2023/06/05 12:39:52;;;;;;;;;6.80;5.00;;;;;;;;5068486;28;8854;-80
2023/06/05 12:42:19;;;;;;;;;5.60;5.60;;;;;;;;5062486;28;8861;-78
2023/06/05 12:44:47;;;;;;;;;4.00;4.00;;;;;;;;5068606;28;8870;-78
2023/06/05 12:47:15;;;;;;;;;5.60;5.60;;;;;;;;5070182;28;8946;-77
2023/06/05 12:49:43;;;;;;;;;5.00;5.00;;;;;;;;5058003;28;8857;-76
2023/06/05 12:52:11;;;;;;;;;4.80;4.80;;;;;;;;5061240;28;8861;-79
2023/06/05 12:54:39;;;;;;;;;6.40;6.40;;;;;;;;5066538;28;8841;-78
2023/06/05 12:57:07;;;;;;;;;3.60;3.60;;;;;;;;5060717;28;8838;-85
2023/06/05 12:59:34;;;;;;;;;5.80;5.80;;;;;;;;5058953;28;8858;-77
2023/06/05 13:02:02;;;;;;;;;6.80;6.80;;;;;;;;5065029;28;8955;-77
2023/06/05 13:04:32;;;;;;;;;5.00;5.00;;;;;;;;5054211;28;9674;-77
2023/06/05 13:07:01;;;;;;;;;6.00;6.00;;;;;;;;5063327;28;8948;-77
2023/06/05 13:09:28;;;;;;;;;4.00;4.00;;;;;;;;5056417;28;8857;-80
2023/06/05 13:11:57;;;;;;;;;4.00;4.00;;;;;;;;5060334;28;9614;-78
2023/06/05 13:14:24;;;;;;;;;5.80;4.40;;;;;;;;5057736;28;8946;-80
2023/06/05 13:16:51;;;;;;;;;5.20;5.20;;;;;;;;5059176;28;8885;-77
2023/06/05 13:19:20;;;;;;;;;4.00;4.00;;;;;;;;5058326;28;8881;-79
2023/06/05 13:21:49;;;;;;;;;5.00;5.00;;;;;;;;5059741;28;8855;-78
2023/06/05 13:24:16;;;;;;;;;6.00;4.40;;;;;;;;5062879;28;8900;-79
2023/06/05 13:26:43;;;;;;;;;4.60;4.60;;;;;;;;5068577;28;8893;-79
2023/06/05 13:29:11;;;;;;;;;4.00;3.40;;;;;;;;5066274;28;8873;-82
2023/06/05 13:31:38;;;;;;;;;5.40;5.40;;;;;;;;5057179;28;8816;-78
2023/06/05 13:34:05;;;;;;;;;4.00;4.00;;;;;;;;5065977;28;8942;-81
2023/06/05 13:36:33;;;;;;;;;4.60;4.60;;;;;;;;5066204;28;8996;-81
2023/06/05 13:39:02;;;;;;;;;5.20;5.20;;;;;;;;5067749;28;8831;-82
2023/06/05 13:41:29;;;;;;;;;5.60;4.80;;;;;;;;5059351;28;8912;-82
2023/06/05 13:43:58;;;;;;;;;5.60;5.60;;;;;;;;5059654;28;8849;-82
2023/06/05 13:46:25;;;;;;;;;6.00;4.80;;;;;;;;5065028;28;8863;-85
2023/06/05 13:48:53;;;;;;;;;4.00;4.00;;;;;;;;5054655;28;8841;-82
2023/06/05 13:51:21;;;;;;;;;5.00;5.00;;;;;;;;5054159;28;8861;-79
2023/06/05 13:53:48;;;;;;;;;5.00;5.00;;;;;;;;5055416;28;8854;-80
2023/06/05 13:56:17;;;;;;;;;4.00;4.00;;;;;;;;5066748;28;8873;-80
2023/06/05 13:58:44;;;;;;;;;2.80;2.80;;;;;;;;5067992;28;8986;-82
2023/06/05 14:01:12;;;;;;;;;4.00;3.00;;;;;;;;5062491;28;8798;-80
2023/06/05 14:03:39;;;;;;;;;7.40;4.20;;;;;;;;5059361;28;9628;-83
2023/06/05 14:06:07;;;;;;;;;6.00;6.00;;;;;;;;5054928;28;8851;-81
2023/06/05 14:08:34;;;;;;;;;3.60;3.60;;;;;;;;5070854;28;8907;-81
2023/06/05 14:11:01;;;;;;;;;4.20;4.20;;;;;;;;5057135;28;8826;-80
2023/06/05 14:13:30;;;;;;;;;2.80;2.80;;;;;;;;5057917;28;8973;-79
2023/06/05 14:15:57;;;;;;;;;4.40;4.40;;;;;;;;5054552;28;8859;-83
2023/06/05 14:18:26;;;;;;;;;4.00;4.00;;;;;;;;5061387;28;8859;-79
2023/06/05 14:20:53;;;;;;;;;4.40;4.40;;;;;;;;5066509;28;8841;-80
2023/06/05 14:23:22;;;;;;;;;5.20;5.20;;;;;;;;5063328;28;8867;-81
2023/06/05 14:25:50;;;;;;;;;4.20;4.20;;;;;;;;5051640;28;8873;-81
2023/06/05 14:28:19;;;;;;;;;5.00;5.00;;;;;;;;5061101;28;8855;-83
2023/06/05 14:30:47;;;;;;;;;5.20;5.20;;;;;;;;5063710;28;8793;-80
2023/06/05 14:33:16;;;;;;;;;4.80;4.00;;;;;;;;5067058;28;8989;-82
2023/06/05 14:35:44;;;;;;;;;3.00;3.00;;;;;;;;5064489;28;8877;-84
2023/06/05 14:38:12;;;;;;;;;5.60;5.60;;;;;;;;5061053;28;8873;-80
2023/06/05 14:40:39;;;;;;;;;5.00;5.00;;;;;;;;5068412;28;8846;-81
2023/06/05 14:43:07;;;;;;;;;4.20;4.20;;;;;;;;5064232;28;8855;-81
2023/06/05 14:45:34;;;;;;;;;5.80;5.80;;;;;;;;5069241;28;8932;-80
2023/06/05 14:48:02;;;;;;;;;4.20;4.20;;;;;;;;5066238;28;8928;-82
2023/06/05 14:50:30;;;;;;;;;5.00;5.00;;;;;;;;5063302;28;8839;-80
2023/06/05 14:52:57;;;;;;;;;4.00;4.00;;;;;;;;5060767;28;9043;-80
2023/06/05 14:55:24;;;;;;;;;3.00;3.00;;;;;;;;5064619;28;8869;-79
2023/06/05 14:57:52;;;;;;;;;6.00;6.00;;;;;;;;5058591;28;8835;-83
2023/06/05 15:00:19;;;;;;;;;6.00;6.00;;;;;;;;5063374;28;8887;-81